createdAt,value
2022-11-14T00:02:17.903Z,4.23
2022-11-14T00:04:43.041Z,4.44
2022-11-14T00:07:09.969Z,4.42
2022-11-14T00:09:35.007Z,4.45
2022-11-14T00:12:00.513Z,4.51
2022-11-14T00:14:25.219Z,4.41
2022-11-14T00:16:49.766Z,4.45
2022-11-14T00:19:15.330Z,4.50
2022-11-14T00:21:41.825Z,4.68
2022-11-14T00:24:08.929Z,4.52
2022-11-14T00:26:34.190Z,4.47
2022-11-14T00:28:58.905Z,4.59
2022-11-14T00:31:23.278Z,4.54
2022-11-14T00:33:51.350Z,4.58
2022-11-14T00:36:15.954Z,4.59
2022-11-14T00:38:40.862Z,4.38
2022-11-14T00:41:09.267Z,4.46
2022-11-14T00:43:33.285Z,4.54
2022-11-14T00:45:57.842Z,4.40
2022-11-14T00:48:23.277Z,4.46
2022-11-14T00:50:49.623Z,4.52
2022-11-14T00:53:14.798Z,4.56
2022-11-14T00:55:40.830Z,4.49
2022-11-14T00:58:07.912Z,4.47
2022-11-14T01:00:32.108Z,4.44
2022-11-14T01:02:58.547Z,4.39
2022-11-14T01:05:23.102Z,4.29
2022-11-14T01:07:48.514Z,4.31
2022-11-14T01:10:13.818Z,4.26
2022-11-14T01:12:38.429Z,4.36
2022-11-14T01:15:05.427Z,4.40
2022-11-14T01:17:31.211Z,4.43
2022-11-14T01:19:55.677Z,4.42
2022-11-14T01:22:19.884Z,4.46
2022-11-14T01:24:45.668Z,4.46
2022-11-14T01:27:10.327Z,4.56
2022-11-14T01:29:34.795Z,4.51
2022-11-14T01:32:02.594Z,4.61
2022-11-14T01:34:27.235Z,4.55
2022-11-14T01:36:51.963Z,4.41
2022-11-14T01:39:18.583Z,4.13
2022-11-14T01:41:42.754Z,4.15
2022-11-14T01:44:19.918Z,4.03
2022-11-14T01:46:57.392Z,4.14
2022-11-14T01:49:29.826Z,4.18
2022-11-14T01:52:07.778Z,4.25
2022-11-14T01:54:40.006Z,4.36
2022-11-14T01:57:10.067Z,4.49
2022-11-14T01:59:41.181Z,4.56
2022-11-14T02:02:18.109Z,4.46
2022-11-14T02:04:51.790Z,4.36
2022-11-14T02:07:19.213Z,4.30
2022-11-14T02:09:50.096Z,4.21
2022-11-14T02:12:20.018Z,4.08
2022-11-14T02:14:48.335Z,3.94
2022-11-14T02:17:30.007Z,3.87
2022-11-14T02:20:09.174Z,4.01
2022-11-14T02:22:34.586Z,3.99
2022-11-14T02:24:58.975Z,3.79
2022-11-14T02:27:24.159Z,3.74
2022-11-14T02:29:49.578Z,3.93
2022-11-14T02:32:16.245Z,4.02
2022-11-14T02:34:41.037Z,4.14
2022-11-14T02:37:09.158Z,4.17
2022-11-14T02:39:34.850Z,4.34
2022-11-14T02:41:59.598Z,4.41
2022-11-14T02:44:24.896Z,4.29
2022-11-14T02:46:49.380Z,4.26
2022-11-14T02:49:16.150Z,4.19
2022-11-14T02:51:41.457Z,4.28
2022-11-14T02:54:08.341Z,4.28
2022-11-14T02:56:32.725Z,4.34
2022-11-14T02:58:58.263Z,4.36
2022-11-14T03:01:22.695Z,4.31
2022-11-14T03:03:49.571Z,4.43
2022-11-14T03:06:16.337Z,4.48
2022-11-14T03:08:40.552Z,4.43
2022-11-14T03:11:12.246Z,4.43
2022-11-14T03:13:37.818Z,4.40
2022-11-14T03:16:08.062Z,4.35
2022-11-14T03:18:32.728Z,4.11
2022-11-14T03:20:57.834Z,3.96
2022-11-14T03:23:21.956Z,3.81
2022-11-14T03:25:46.019Z,3.98
2022-11-14T03:28:13.949Z,3.94
2022-11-14T03:30:38.386Z,3.91
2022-11-14T03:33:02.821Z,3.87
2022-11-14T03:35:29.914Z,3.86
2022-11-14T03:37:56.581Z,3.83
2022-11-14T03:40:21.272Z,3.69
2022-11-14T03:42:46.601Z,3.71
2022-11-14T03:45:14.307Z,3.63
2022-11-14T03:47:38.563Z,3.59
2022-11-14T03:50:03.627Z,3.66
2022-11-14T03:52:33.040Z,3.67
2022-11-14T03:54:57.938Z,3.70
2022-11-14T03:57:22.911Z,3.76
2022-11-14T03:59:47.572Z,3.80
2022-11-14T04:02:14.907Z,3.73
2022-11-14T04:04:40.241Z,3.79
2022-11-14T04:07:04.965Z,3.65
2022-11-14T04:09:29.797Z,3.70
2022-11-14T04:11:54.934Z,3.80
2022-11-14T04:14:19.077Z,3.72
2022-11-14T04:16:43.672Z,3.82
2022-11-14T04:19:11.606Z,3.82
2022-11-14T04:21:37.305Z,3.90
2022-11-14T04:24:04.788Z,3.76
2022-11-14T04:26:32.551Z,3.62
2022-11-14T04:28:57.139Z,3.72
2022-11-14T04:31:27.297Z,3.87
2022-11-14T04:33:52.321Z,3.90
2022-11-14T04:36:22.291Z,3.87
2022-11-14T04:38:47.868Z,3.70
2022-11-14T04:41:26.922Z,3.67
2022-11-14T04:43:51.581Z,3.55
2022-11-14T04:46:16.056Z,3.60
2022-11-14T04:48:41.406Z,3.62
2022-11-14T04:51:15.544Z,3.62
2022-11-14T04:53:43.036Z,3.53
2022-11-14T04:56:09.781Z,3.59
2022-11-14T04:58:34.468Z,3.63
2022-11-14T05:00:59.305Z,3.67
2022-11-14T05:03:24.381Z,3.69
2022-11-14T05:05:52.338Z,3.85
2022-11-14T05:08:17.061Z,3.88
2022-11-14T05:10:49.383Z,3.84
2022-11-14T05:13:14.463Z,3.80
2022-11-14T05:15:39.418Z,3.69
2022-11-14T05:18:04.669Z,3.73
2022-11-14T05:20:28.982Z,3.70
2022-11-14T05:23:00.003Z,3.68
2022-11-14T05:25:31.902Z,3.64
2022-11-14T05:27:59.004Z,3.66
2022-11-14T05:30:23.528Z,3.72
2022-11-14T05:32:48.866Z,3.80
2022-11-14T05:35:13.691Z,3.81
2022-11-14T05:37:38.728Z,3.78
2022-11-14T05:40:03.891Z,3.79
2022-11-14T05:42:28.347Z,3.87
2022-11-14T05:44:58.560Z,3.63
2022-11-14T05:47:26.424Z,3.79
2022-11-14T05:49:50.771Z,3.76
2022-11-14T05:52:15.997Z,3.77
2022-11-14T05:54:41.632Z,3.68
2022-11-14T05:57:20.537Z,3.69
2022-11-14T05:59:46.025Z,3.51
2022-11-14T06:02:13.391Z,3.66
2022-11-14T06:04:39.658Z,3.70
2022-11-14T06:07:05.006Z,3.72
2022-11-14T06:09:34.388Z,3.63
2022-11-14T06:12:12.630Z,3.63
2022-11-14T06:14:40.113Z,3.73
2022-11-14T06:17:06.697Z,3.66
2022-11-14T06:19:34.631Z,3.53
2022-11-14T06:21:58.857Z,3.53
2022-11-14T06:24:23.200Z,3.54
2022-11-14T06:26:49.126Z,3.52
2022-11-14T06:29:14.070Z,3.46
2022-11-14T06:31:38.539Z,3.47
2022-11-14T06:34:03.596Z,3.41
2022-11-14T06:36:34.608Z,3.37
2022-11-14T06:38:59.253Z,3.58
2022-11-14T06:41:26.591Z,3.74
2022-11-14T06:43:54.500Z,3.84
2022-11-14T06:46:22.423Z,3.89
2022-11-14T06:48:59.663Z,3.88
2022-11-14T06:51:29.418Z,3.84
2022-11-14T06:53:57.011Z,3.96
2022-11-14T06:56:23.158Z,3.88
2022-11-14T06:58:50.468Z,3.96
2022-11-14T07:01:19.815Z,3.77
2022-11-14T07:03:49.079Z,3.77
2022-11-14T07:06:17.440Z,3.91
2022-11-14T07:08:43.999Z,3.97
2022-11-14T07:11:23.010Z,3.92
2022-11-14T07:13:48.408Z,3.98
2022-11-14T07:16:12.810Z,4.12
2022-11-14T07:18:39.124Z,4.12
2022-11-14T07:21:07.617Z,4.03
2022-11-14T07:23:33.859Z,3.97
2022-11-14T07:25:58.074Z,3.98
2022-11-14T07:28:26.038Z,4.04
2022-11-14T07:30:50.235Z,4.05
2022-11-14T07:33:14.722Z,4.12
2022-11-14T07:35:43.163Z,4.13
2022-11-14T07:38:08.264Z,4.16
2022-11-14T07:40:32.988Z,4.30
2022-11-14T07:43:02.618Z,4.28
2022-11-14T07:45:30.510Z,4.20
2022-11-14T07:47:58.875Z,4.29
2022-11-14T07:50:24.038Z,4.41
2022-11-14T07:52:54.467Z,4.45
2022-11-14T07:55:19.502Z,4.27
2022-11-14T07:57:49.024Z,4.19
2022-11-14T08:00:17.171Z,4.08
2022-11-14T08:02:44.448Z,4.15
2022-11-14T08:07:28.491Z,4.61
2022-11-14T08:09:53.873Z,4.43
2022-11-14T08:12:18.409Z,4.55
2022-11-14T08:14:42.780Z,4.56
2022-11-14T08:17:08.057Z,4.54
2022-11-14T08:19:32.571Z,4.54
2022-11-14T08:21:59.494Z,4.52
2022-11-14T08:24:27.379Z,4.72
2022-11-14T08:26:51.669Z,4.70
2022-11-14T08:29:18.198Z,4.62
2022-11-14T08:31:46.189Z,4.64
2022-11-14T08:34:10.791Z,4.74
2022-11-14T08:36:36.138Z,4.71
2022-11-14T08:39:02.196Z,4.78
2022-11-14T08:41:29.474Z,4.52
2022-11-14T08:43:53.443Z,4.31
2022-11-14T08:46:18.547Z,4.31
2022-11-14T08:48:43.104Z,4.42
2022-11-14T08:51:10.793Z,4.62
2022-11-14T08:53:38.271Z,4.49
2022-11-14T08:56:03.163Z,4.43
2022-11-14T08:58:32.806Z,4.58
2022-11-14T09:01:01.910Z,4.66
2022-11-14T09:03:26.100Z,4.53
2022-11-14T09:05:55.247Z,4.52
2022-11-14T09:08:20.268Z,4.40
2022-11-14T09:10:45.350Z,4.43
2022-11-14T09:13:12.838Z,4.36
2022-11-14T09:15:41.290Z,4.51
2022-11-14T09:18:05.855Z,4.69
2022-11-14T09:20:34.166Z,4.80
2022-11-14T09:23:03.270Z,4.77
2022-11-14T09:25:28.212Z,4.83
2022-11-14T09:28:00.094Z,5.02
2022-11-14T09:30:30.005Z,4.77
2022-11-14T09:32:59.424Z,4.85
2022-11-14T09:35:25.220Z,4.91
2022-11-14T09:37:50.295Z,4.51
2022-11-14T09:40:17.289Z,4.61
2022-11-14T09:43:15.066Z,4.58
2022-11-14T09:45:53.551Z,4.84
2022-11-14T09:48:27.707Z,4.64
2022-11-14T09:51:09.400Z,4.68
2022-11-14T09:53:45.678Z,4.63
2022-11-14T09:56:21.513Z,4.60
2022-11-14T09:58:46.227Z,4.86
2022-11-14T10:01:35.213Z,4.78
2022-11-14T10:04:20.829Z,4.89
2022-11-14T10:07:12.620Z,4.81
2022-11-14T10:09:56.774Z,4.91
2022-11-14T10:12:34.080Z,5.08
2022-11-14T10:15:32.667Z,5.18
2022-11-14T10:18:36.893Z,5.25
2022-11-14T10:21:24.915Z,4.89
2022-11-14T10:24:06.945Z,4.61
2022-11-14T10:26:36.345Z,4.81
2022-11-14T10:29:45.646Z,4.95
2022-11-14T10:32:33.757Z,4.91
2022-11-14T10:35:13.525Z,5.05
2022-11-14T10:37:56.196Z,5.22
2022-11-14T10:40:27.919Z,5.17
2022-11-14T10:43:03.992Z,5.15
2022-11-14T10:45:37.901Z,5.42
2022-11-14T10:48:12.674Z,5.63
2022-11-14T10:50:52.975Z,5.53
2022-11-14T10:53:32.227Z,5.57
2022-11-14T10:56:05.343Z,5.73
2022-11-14T10:58:30.278Z,5.80
2022-11-14T11:00:55.225Z,5.96
2022-11-14T11:03:20.743Z,5.95
2022-11-14T11:05:55.000Z,5.85
2022-11-14T11:08:43.801Z,6.13
2022-11-14T11:11:29.536Z,5.92
2022-11-14T11:13:59.562Z,5.82
2022-11-14T11:16:27.793Z,5.94
2022-11-14T11:18:52.170Z,6.08
2022-11-14T11:21:28.617Z,5.88
2022-11-14T11:23:58.856Z,5.68
2022-11-14T11:26:28.577Z,5.78
2022-11-14T11:29:18.489Z,5.82
2022-11-14T11:31:55.612Z,6.02
2022-11-14T11:34:27.370Z,6.05
2022-11-14T11:37:01.881Z,6.13
2022-11-14T11:39:36.196Z,6.13
2022-11-14T11:42:11.417Z,6.19
2022-11-14T11:44:49.175Z,6.38
2022-11-14T11:47:21.788Z,6.17
2022-11-14T11:49:53.875Z,6.22
2022-11-14T11:52:33.784Z,6.10
2022-11-14T11:55:19.725Z,6.48
2022-11-14T11:57:50.839Z,6.54
2022-11-14T12:00:26.258Z,6.58
2022-11-14T12:02:57.037Z,6.76
2022-11-14T12:05:39.409Z,6.81
2022-11-14T12:08:10.036Z,6.53
2022-11-14T12:10:46.048Z,6.23
2022-11-14T12:14:00.866Z,6.07
2022-11-14T12:16:49.555Z,6.09
2022-11-14T12:20:08.831Z,5.75
2022-11-14T12:23:15.949Z,5.89
2022-11-14T12:26:11.191Z,6.09
2022-11-14T12:29:10.543Z,6.02
2022-11-14T12:31:42.617Z,6.21
2022-11-14T12:34:26.361Z,6.05
2022-11-14T12:36:52.421Z,6.14
2022-11-14T12:39:31.003Z,6.09
2022-11-14T12:42:14.792Z,6.14
2022-11-14T12:44:42.360Z,6.35
2022-11-14T12:47:24.536Z,6.58
2022-11-14T12:50:31.299Z,6.52
2022-11-14T12:53:03.446Z,6.45
2022-11-14T12:56:12.667Z,6.40
2022-11-14T12:59:15.284Z,6.32
2022-11-14T13:02:22.339Z,6.41
2022-11-14T13:05:26.217Z,6.32
2022-11-14T13:08:18.513Z,6.52
2022-11-14T13:10:47.443Z,6.43
2022-11-14T13:13:33.837Z,6.33
2022-11-14T13:16:33.796Z,6.26
2022-11-14T13:19:37.013Z,6.13
2022-11-14T13:22:42.935Z,6.13
2022-11-14T13:25:26.267Z,6.23
2022-11-14T13:28:21.860Z,6.19
2022-11-14T13:31:22.549Z,6.10
2022-11-14T13:34:00.107Z,6.01
2022-11-14T13:36:39.805Z,5.94
2022-11-14T13:39:40.767Z,5.89
2022-11-14T13:42:47.946Z,5.99
2022-11-14T13:45:48.302Z,6.22
2022-11-14T13:48:57.890Z,6.43
2022-11-14T13:51:43.012Z,6.29
2022-11-14T13:54:17.940Z,6.33
2022-11-14T13:57:12.582Z,6.13
2022-11-14T14:00:07.283Z,5.97
2022-11-14T14:03:16.061Z,5.95
2022-11-14T14:06:10.693Z,5.89
2022-11-14T14:09:14.665Z,5.83
2022-11-14T14:12:16.927Z,5.72
2022-11-14T14:15:19.060Z,5.43
2022-11-14T14:18:03.979Z,5.51
2022-11-14T14:20:50.267Z,5.42
2022-11-14T14:23:46.356Z,5.44
2022-11-14T14:26:29.763Z,5.42
2022-11-14T14:29:09.561Z,5.30
2022-11-14T14:31:41.130Z,5.43
2022-11-14T14:34:06.620Z,5.35
2022-11-14T14:36:33.936Z,5.48
2022-11-14T14:39:25.443Z,5.59
2022-11-14T14:41:52.424Z,5.46
2022-11-14T14:44:28.697Z,5.34
2022-11-14T14:46:56.122Z,5.21
2022-11-14T14:49:29.672Z,5.06
2022-11-14T14:51:58.742Z,4.74
2022-11-14T14:54:28.953Z,4.88
2022-11-14T14:57:00.468Z,4.96
2022-11-14T14:59:33.796Z,4.98
2022-11-14T15:02:00.444Z,4.99
2022-11-14T15:04:29.282Z,5.05
2022-11-14T15:06:58.896Z,5.04
2022-11-14T15:09:27.371Z,4.96
2022-11-14T15:11:57.266Z,4.99
2022-11-14T15:14:27.777Z,4.94
2022-11-14T15:16:55.925Z,5.02
2022-11-14T15:19:26.534Z,4.76
2022-11-14T15:22:07.746Z,4.67
2022-11-14T15:24:33.696Z,4.71
2022-11-14T15:26:58.875Z,4.61
2022-11-14T15:29:26.538Z,4.67
2022-11-14T15:31:59.033Z,4.63
2022-11-14T15:34:32.210Z,4.44
2022-11-14T15:37:26.273Z,4.46
2022-11-14T15:39:51.702Z,4.57
2022-11-14T15:42:31.172Z,4.48
2022-11-14T15:44:57.264Z,4.30
2022-11-14T15:47:26.037Z,4.23
2022-11-14T15:50:04.209Z,4.32
2022-11-14T15:52:49.668Z,4.34
2022-11-14T15:55:20.240Z,4.44
2022-11-14T15:58:00.871Z,4.48
2022-11-14T16:00:35.435Z,4.57
2022-11-14T16:03:01.575Z,4.63
2022-11-14T16:05:32.729Z,4.42
2022-11-14T16:08:01.062Z,4.42
2022-11-14T16:10:30.385Z,4.21
2022-11-14T16:12:55.037Z,4.20
2022-11-14T16:15:22.541Z,4.10
2022-11-14T16:17:50.803Z,4.08
2022-11-14T16:20:22.684Z,4.19
2022-11-14T16:22:49.648Z,4.18
2022-11-14T16:25:22.796Z,4.05
2022-11-14T16:27:48.006Z,3.90
2022-11-14T16:30:28.363Z,3.84
2022-11-14T16:32:56.299Z,3.88
2022-11-14T16:35:24.616Z,4.01
2022-11-14T16:37:50.398Z,4.07
2022-11-14T16:40:29.168Z,4.18
2022-11-14T16:42:54.414Z,4.14
2022-11-14T16:45:20.811Z,4.27
2022-11-14T16:47:44.945Z,4.34
2022-11-14T16:50:11.074Z,4.27
2022-11-14T16:52:36.346Z,4.24
2022-11-14T16:55:06.877Z,4.23
2022-11-14T16:57:45.698Z,4.33
2022-11-14T17:00:14.531Z,4.23
2022-11-14T17:02:38.985Z,4.23
2022-11-14T17:05:19.978Z,4.01
2022-11-14T17:07:48.368Z,3.92
2022-11-14T17:10:13.228Z,3.82
2022-11-14T17:12:38.122Z,3.55
2022-11-14T17:15:04.777Z,3.76
2022-11-14T17:17:29.354Z,3.75
2022-11-14T17:19:58.862Z,3.80
2022-11-14T17:22:23.167Z,3.93
2022-11-14T17:24:48.195Z,4.04
2022-11-14T17:27:20.739Z,4.07
2022-11-14T17:29:45.485Z,4.21
2022-11-14T17:32:18.604Z,4.33
2022-11-14T17:34:43.911Z,4.27
2022-11-14T17:37:08.458Z,4.14
2022-11-14T17:39:35.355Z,4.21
2022-11-14T17:42:13.894Z,4.16
2022-11-14T17:44:38.534Z,4.31
2022-11-14T17:47:03.032Z,4.26
2022-11-14T17:49:32.227Z,4.06
2022-11-14T17:51:56.690Z,3.90
2022-11-14T17:54:21.240Z,3.80
2022-11-14T17:56:54.777Z,3.70
2022-11-14T17:59:22.612Z,3.66
2022-11-14T18:01:47.157Z,3.88
2022-11-14T18:04:17.126Z,3.88
2022-11-14T18:06:44.084Z,3.91
2022-11-14T18:09:14.455Z,4.02
2022-11-14T18:11:52.719Z,4.10
2022-11-14T18:14:20.522Z,4.26
2022-11-14T18:17:11.209Z,4.31
2022-11-14T18:19:30.757Z,4.47
2022-11-14T18:21:57.814Z,4.41
2022-11-14T18:24:22.154Z,4.42
2022-11-14T18:26:52.022Z,4.32
2022-11-14T18:29:21.216Z,4.04
2022-11-14T18:31:58.810Z,4.06
2022-11-14T18:34:23.498Z,4.10
2022-11-14T18:36:48.585Z,3.90
2022-11-14T18:39:16.593Z,3.93
2022-11-14T18:41:43.803Z,3.97
2022-11-14T18:44:09.594Z,4.04
2022-11-14T18:46:37.577Z,4.12
2022-11-14T18:49:09.831Z,4.08
2022-11-14T18:51:42.424Z,4.23
2022-11-14T18:54:07.553Z,4.34
2022-11-14T18:56:34.874Z,4.36
2022-11-14T18:59:01.002Z,4.38
2022-11-14T19:01:32.390Z,4.43
2022-11-14T19:04:05.054Z,4.52
2022-11-14T19:06:30.911Z,4.38
2022-11-14T19:09:10.793Z,4.46
2022-11-14T19:11:51.759Z,4.46
2022-11-14T19:14:16.778Z,4.35
2022-11-14T19:16:42.813Z,4.32
2022-11-14T19:19:10.177Z,4.26
2022-11-14T19:21:35.013Z,4.31
2022-11-14T19:24:00.839Z,4.15
2022-11-14T19:26:29.871Z,4.13
2022-11-14T19:28:57.817Z,3.86
2022-11-14T19:31:25.441Z,3.82
2022-11-14T19:33:52.411Z,3.83
2022-11-14T19:36:44.976Z,3.71
2022-11-14T19:39:20.314Z,3.65
2022-11-14T19:41:44.855Z,3.65
2022-11-14T19:44:19.443Z,3.59
2022-11-14T19:46:47.892Z,3.72
2022-11-14T19:49:13.294Z,3.76
2022-11-14T19:51:48.657Z,3.92
2022-11-14T19:54:16.421Z,4.00
2022-11-14T19:56:41.306Z,4.03
2022-11-14T19:59:11.052Z,3.99
2022-11-14T20:01:42.322Z,4.13
2022-11-14T20:04:16.593Z,4.09
2022-11-14T20:06:44.172Z,4.13
2022-11-14T20:09:25.617Z,4.06
2022-11-14T20:11:56.904Z,4.04
2022-11-14T20:14:28.869Z,3.87
2022-11-14T20:16:56.688Z,3.92
2022-11-14T20:19:27.891Z,4.06
2022-11-14T20:21:52.454Z,4.00
2022-11-14T20:24:21.686Z,4.10
2022-11-14T20:26:46.385Z,4.13
2022-11-14T20:29:10.602Z,4.02
2022-11-14T20:31:35.947Z,4.09
2022-11-14T20:34:03.667Z,4.12
2022-11-14T20:36:44.117Z,4.20
2022-11-14T20:39:15.572Z,4.30
2022-11-14T20:41:40.080Z,4.26
2022-11-14T20:44:05.911Z,4.38
2022-11-14T20:46:31.361Z,4.29
2022-11-14T20:48:57.119Z,4.36
2022-11-14T20:51:26.773Z,4.29
2022-11-14T20:53:54.877Z,4.23
2022-11-14T20:56:21.827Z,4.27
2022-11-14T20:58:48.910Z,4.40
2022-11-14T21:01:14.819Z,4.46
2022-11-14T21:03:39.918Z,4.54
2022-11-14T21:06:07.208Z,4.48
2022-11-14T21:08:38.882Z,4.44
2022-11-14T21:11:10.937Z,4.52
2022-11-14T21:13:52.162Z,4.56
2022-11-14T21:16:20.677Z,4.51
2022-11-14T21:18:49.014Z,4.47
2022-11-14T21:21:16.867Z,4.51
2022-11-14T21:23:43.672Z,4.32
2022-11-14T21:26:12.985Z,4.17
2022-11-14T21:28:41.971Z,4.12
2022-11-14T21:31:19.295Z,4.18
2022-11-14T21:33:48.638Z,4.17
2022-11-14T21:36:43.327Z,4.19
2022-11-14T21:39:03.924Z,4.21
2022-11-14T21:41:31.587Z,4.26
2022-11-14T21:43:58.935Z,4.19
2022-11-14T21:46:23.463Z,4.21
2022-11-14T21:48:51.315Z,4.19
2022-11-14T21:51:18.377Z,4.35
2022-11-14T21:53:56.281Z,4.36
2022-11-14T21:56:27.800Z,4.32
2022-11-14T21:59:12.781Z,4.28
2022-11-14T22:01:50.527Z,4.22
2022-11-14T22:04:17.509Z,4.33
2022-11-14T22:06:47.358Z,4.36
2022-11-14T22:09:16.160Z,4.32
2022-11-14T22:11:44.178Z,4.28
2022-11-14T22:14:10.098Z,4.09
2022-11-14T22:16:37.769Z,3.98
2022-11-14T22:19:08.949Z,4.08
2022-11-14T22:21:35.492Z,4.11
2022-11-14T22:24:00.360Z,4.10
2022-11-14T22:26:46.982Z,4.05
2022-11-14T22:29:13.854Z,4.12
2022-11-14T22:31:40.798Z,4.25
2022-11-14T22:34:05.383Z,4.37
2022-11-14T22:36:34.260Z,4.39
2022-11-14T22:39:00.793Z,4.51
2022-11-14T22:41:36.262Z,4.51
2022-11-14T22:44:08.278Z,4.54
2022-11-14T22:46:35.020Z,4.35
2022-11-14T22:48:59.599Z,4.38
2022-11-14T22:51:27.317Z,4.53
2022-11-14T22:53:54.748Z,4.66
2022-11-14T22:56:26.253Z,4.78
2022-11-14T22:59:04.120Z,4.73
2022-11-14T23:01:31.476Z,4.66
2022-11-14T23:04:02.991Z,4.70
2022-11-14T23:06:28.852Z,4.70
2022-11-14T23:09:08.943Z,4.71
2022-11-14T23:11:45.234Z,4.55
2022-11-14T23:14:09.849Z,4.68
2022-11-14T23:16:36.817Z,4.66
2022-11-14T23:19:07.584Z,4.65
2022-11-14T23:21:36.477Z,4.52
2022-11-14T23:24:05.938Z,4.36
2022-11-14T23:26:33.209Z,4.36
2022-11-14T23:28:59.202Z,4.38
2022-11-14T23:31:25.845Z,4.52
2022-11-14T23:33:52.802Z,4.64
2022-11-14T23:36:25.314Z,4.69
2022-11-14T23:38:50.841Z,4.37
2022-11-14T23:41:22.248Z,4.38
2022-11-14T23:43:54.050Z,4.15
2022-11-14T23:46:28.686Z,4.02
2022-11-14T23:48:54.451Z,3.97
2022-11-14T23:51:19.021Z,4.21
2022-11-14T23:53:47.015Z,4.30
2022-11-14T23:56:16.253Z,4.25
2022-11-14T23:58:43.190Z,4.07
